Time;durP1;ratioP1;P1;durP2;ratioP2;P2;SDS_P1;SDS_P2;PMS_P1;PMS_P2;Temp;Humidity;BMP_temperature;BMP_pressure;BME280_temperature;BME280_humidity;BME280_pressure;Samples;Min_cycle;Max_cycle;Signal;HPM_P1;HPM_P2
2022/12/13 00:01:52;;;;;;;0.50;0.10;;;-1.50;1.00;;;;;;6068278;23;20956;-77
2022/12/13 00:04:21;;;;;;;0.50;0.10;;;-1.60;1.00;;;;;;6070137;23;20813;-77
2022/12/13 00:06:49;;;;;;;0.50;0.10;;;-1.70;1.00;;;;;;6071748;23;20952;-77
2022/12/13 00:09:20;;;;;;;1.27;0.83;;;-1.70;1.00;;;;;;6068103;23;21079;-77
2022/12/13 00:11:48;;;;;;;1.60;1.53;;;-1.70;1.00;;;;;;6073704;23;20408;-78
2022/12/13 00:14:16;;;;;;;0.60;0.40;;;-1.70;1.00;;;;;;6074669;23;20408;-78
2022/12/13 00:16:46;;;;;;;0.90;0.63;;;-1.70;1.00;;;;;;6073858;23;20448;-78
2022/12/13 00:19:15;;;;;;;0.50;0.10;;;-1.70;1.00;;;;;;6074202;23;20424;-78
2022/12/13 00:21:43;;;;;;;0.60;0.37;;;-1.70;1.00;;;;;;6070692;23;20423;-78
2022/12/13 00:24:11;;;;;;;0.70;0.63;;;-1.70;1.00;;;;;;6068269;23;20414;-77
2022/12/13 00:26:40;;;;;;;1.53;1.43;;;-1.70;1.00;;;;;;6067866;23;20487;-77
2022/12/13 00:29:10;;;;;;;0.60;0.40;;;-1.70;1.00;;;;;;6067083;23;20448;-77
2022/12/13 00:31:39;;;;;;;0.50;0.10;;;;;;;;;;6067064;23;20447;-77
2022/12/13 00:34:27;;;;;;;0.50;0.10;;;;;;;;;;6068898;23;20467;-77
2022/12/13 00:36:57;;;;;;;0.63;0.63;;;-1.80;1.00;;;;;;6074412;23;20419;-78
2022/12/13 00:39:25;;;;;;;7.17;1.50;;;-1.80;1.00;;;;;;6089356;23;20424;-79
2022/12/13 00:41:57;;;;;;;0.50;0.20;;;-1.80;1.00;;;;;;6088010;23;20415;-79
2022/12/13 00:44:26;;;;;;;0.50;0.10;;;;;;;;;;6089486;23;20411;-78
2022/12/13 00:46:53;;;;;;;0.50;0.10;;;-1.90;1.00;;;;;;6090627;23;20436;-77
2022/12/13 00:49:22;;;;;;;4.50;3.43;;;;;;;;;;6091068;23;20445;-79
2022/12/13 00:51:50;;;;;;;1.20;1.10;;;;;;;;;;6080106;23;20412;-78
2022/12/13 00:54:18;;;;;;;0.60;0.30;;;-2.00;1.00;;;;;;6078486;23;20400;-78
2022/12/13 00:56:46;;;;;;;1.50;1.40;;;-2.00;1.00;;;;;;6081969;23;20510;-77
2022/12/13 00:59:16;;;;;;;1.43;0.97;;;-2.00;1.00;;;;;;6090591;23;20435;-77
2022/12/13 05:02:24;;;;;;;0.50;0.20;;;;;;;;;;6049234;23;20479;-79
2022/12/13 05:04:52;;;;;;;1.23;1.13;;;-3.70;1.00;;;;;;6067251;23;20389;-79
2022/12/13 05:07:21;;;;;;;0.90;0.80;;;-3.70;1.00;;;;;;6069556;23;20455;-78
2022/12/13 05:09:49;;;;;;;0.50;0.10;;;-3.70;1.00;;;;;;6071353;23;20731;-79
2022/12/13 05:12:17;;;;;;;0.87;0.83;;;-3.70;1.00;;;;;;6066996;23;20442;-79
2022/12/13 05:14:50;;;;;;;0.50;0.10;;;;;;;;;;6068012;23;20478;-80
2022/12/13 05:17:18;;;;;;;0.50;0.10;;;-3.70;1.00;;;;;;6084912;23;20480;-82
2022/12/13 05:19:47;;;;;;;0.90;0.67;;;-3.70;1.00;;;;;;6074980;23;20427;-84
2022/12/13 05:22:15;;;;;;;0.50;0.10;;;-3.80;1.00;;;;;;6072911;23;20422;-81
2022/12/13 05:24:48;;;;;;;0.50;0.10;;;-3.70;1.00;;;;;;6075559;23;20424;-81
2022/12/13 05:27:16;;;;;;;0.50;0.10;;;-3.70;1.00;;;;;;6077344;23;20482;-81
2022/12/13 05:29:53;;;;;;;0.50;0.10;;;-3.70;1.00;;;;;;6084907;23;20446;-81
2022/12/13 05:32:34;;;;;;;0.50;0.20;;;-3.70;1.00;;;;;;6086980;23;20455;-81
2022/12/13 05:35:12;;;;;;;3.30;1.80;;;-3.60;1.00;;;;;;6081679;23;20451;-81
2022/12/13 05:37:49;;;;;;;0.50;0.10;;;-3.60;1.00;;;;;;6088183;23;20422;-83
2022/12/13 05:40:22;;;;;;;0.50;0.10;;;-3.60;1.00;;;;;;6093130;23;20935;-83
2022/12/13 05:42:49;;;;;;;3.23;2.83;;;-3.60;1.00;;;;;;6084097;23;20399;-81
2022/12/13 05:45:18;;;;;;;1.60;1.50;;;-3.60;1.00;;;;;;6079845;23;20446;-82
2022/12/13 05:47:47;;;;;;;0.50;0.10;;;-3.60;1.00;;;;;;6088370;23;20420;-81
2022/12/13 05:50:17;;;;;;;0.50;0.10;;;-3.60;1.00;;;;;;6075367;23;20955;-80
2022/12/13 05:52:45;;;;;;;0.50;0.10;;;-3.60;1.00;;;;;;6076883;23;20533;-80
2022/12/13 05:55:13;;;;;;;4.97;4.77;;;-3.60;1.00;;;;;;6076759;23;20738;-79
2022/12/13 05:57:42;;;;;;;1.17;0.87;;;-3.60;1.00;;;;;;6078366;23;20422;-82
2022/12/13 06:00:18;;;;;;;3.80;3.60;;;-3.60;1.00;;;;;;6078862;23;20475;-81
2022/12/13 06:02:58;;;;;;;2.80;2.63;;;-3.60;1.00;;;;;;6083129;23;20498;-81
2022/12/13 06:05:30;;;;;;;1.90;1.77;;;-3.60;1.00;;;;;;6087704;23;20400;-80
2022/12/13 06:07:58;;;;;;;0.50;0.10;;;-3.60;1.00;;;;;;6089784;23;20435;-82
2022/12/13 06:10:27;;;;;;;0.50;0.10;;;-3.60;1.00;;;;;;6087740;23;20440;-83
2022/12/13 06:13:02;;;;;;;0.50;0.10;;;-3.60;1.00;;;;;;6081428;23;20902;-82
2022/12/13 06:15:49;;;;;;;2.30;0.93;;;-3.60;1.00;;;;;;6081215;23;20431;-82
2022/12/13 06:18:16;;;;;;;0.50;0.10;;;-3.60;1.00;;;;;;6090735;23;20759;-82
2022/12/13 06:20:46;;;;;;;1.00;0.87;;;-3.60;1.00;;;;;;6091560;23;20466;-83
2022/12/13 06:23:14;;;;;;;0.50;0.30;;;-3.50;1.00;;;;;;6088981;23;20418;-82
2022/12/13 06:25:42;;;;;;;0.50;0.10;;;-3.50;1.00;;;;;;6091598;23;20439;-81
2022/12/13 06:28:15;;;;;;;4.63;4.33;;;-3.50;1.00;;;;;;6086995;23;20534;-82
2022/12/13 06:30:43;;;;;;;0.50;0.10;;;-3.50;1.00;;;;;;6080326;23;20452;-81
2022/12/13 06:33:11;;;;;;;1.70;1.33;;;-3.50;1.00;;;;;;6088013;23;20414;-82
2022/12/13 06:35:40;;;;;;;0.50;0.10;;;-3.50;1.00;;;;;;6085376;23;20435;-82
2022/12/13 06:38:09;;;;;;;0.70;0.40;;;-3.60;1.00;;;;;;6084094;23;20411;-82
2022/12/13 06:40:39;;;;;;;0.50;0.10;;;-3.70;1.00;;;;;;6077679;23;20427;-80
2022/12/13 06:43:07;;;;;;;0.50;0.10;;;-3.80;1.00;;;;;;6081919;23;20438;-82
2022/12/13 06:45:38;;;;;;;0.50;0.10;;;-3.90;1.00;;;;;;6079810;23;20426;-82
2022/12/13 06:48:06;;;;;;;0.50;0.10;;;-3.90;1.00;;;;;;6076910;23;20466;-82
2022/12/13 06:50:34;;;;;;;0.70;0.70;;;-3.90;1.00;;;;;;6076237;23;20447;-82
2022/12/13 06:53:02;;;;;;;0.80;0.47;;;-3.90;1.00;;;;;;6085138;23;20468;-82
2022/12/13 06:55:32;;;;;;;0.50;0.10;;;-3.80;1.00;;;;;;6085089;23;20458;-81
2022/12/13 06:58:00;;;;;;;2.27;2.10;;;-3.80;1.00;;;;;;6085059;23;20408;-81
2022/12/13 07:00:28;;;;;;;0.50;0.10;;;-3.80;1.00;;;;;;6084585;23;20416;-79
2022/12/13 07:03:11;;;;;;;0.50;0.10;;;-3.80;1.00;;;;;;6082374;23;20395;-82
2022/12/13 07:05:39;;;;;;;1.47;1.23;;;-3.80;1.00;;;;;;6080569;23;20427;-79
2022/12/13 07:08:10;;;;;;;0.50;0.10;;;-3.70;1.00;;;;;;6081431;23;20499;-79
2022/12/13 07:10:40;;;;;;;0.50;0.10;;;-3.80;1.00;;;;;;6082997;23;20515;-79
2022/12/13 07:13:08;;;;;;;2.00;1.90;;;-3.80;1.00;;;;;;6089374;23;20403;-79
2022/12/13 07:15:35;;;;;;;1.50;1.40;;;-3.80;1.00;;;;;;6087108;23;20443;-79
2022/12/13 07:18:04;;;;;;;2.70;1.70;;;-3.80;1.00;;;;;;6089838;23;20428;-79
2022/12/13 07:20:31;;;;;;;1.50;1.40;;;-3.80;1.00;;;;;;6087959;23;20411;-80
2022/12/13 07:22:59;;;;;;;0.50;0.10;;;-3.80;1.00;;;;;;6084875;23;20418;-81
2022/12/13 07:25:27;;;;;;;0.80;0.73;;;-3.80;1.00;;;;;;6084200;23;20432;-79
2022/12/13 07:27:59;;;;;;;0.50;0.20;;;-3.90;1.00;;;;;;6082307;23;20418;-79
2022/12/13 07:30:30;;;;;;;3.50;3.27;;;-3.90;1.00;;;;;;6078086;23;20467;-80
2022/12/13 07:32:58;;;;;;;1.17;0.80;;;-3.90;1.00;;;;;;6077617;23;20420;-79
2022/12/13 07:35:26;;;;;;;0.63;0.63;;;-3.90;1.00;;;;;;6079647;23;20483;-82
2022/12/13 07:37:53;;;;;;;0.50;0.10;;;-3.90;1.00;;;;;;6086159;23;20443;-78
2022/12/13 07:40:21;;;;;;;0.50;0.20;;;-3.90;1.00;;;;;;6090860;23;20396;-80
2022/12/13 07:42:50;;;;;;;1.27;0.40;;;-3.90;1.00;;;;;;6085692;23;20469;-81
2022/12/13 07:45:20;;;;;;;0.50;0.27;;;-3.90;1.00;;;;;;6089326;23;20438;-79
2022/12/13 07:47:48;;;;;;;3.47;2.50;;;-3.80;1.00;;;;;;6091783;23;20392;-81
2022/12/13 07:50:19;;;;;;;0.97;0.87;;;-3.80;1.00;;;;;;6078508;23;20559;-79
2022/12/13 07:52:52;;;;;;;0.50;0.10;;;-3.80;1.00;;;;;;6078562;23;20427;-81
2022/12/13 07:55:20;;;;;;;0.50;0.10;;;-3.90;1.00;;;;;;6076058;23;20439;-80
2022/12/13 07:58:05;;;;;;;9.30;3.07;;;-3.90;1.00;;;;;;6076615;23;20384;-81
2022/12/13 08:00:34;;;;;;;8.77;1.40;;;-3.90;1.00;;;;;;6077594;23;20439;-77
2022/12/13 08:03:02;;;;;;;0.60;0.57;;;-3.80;1.00;;;;;;6073234;23;21175;-79
2022/12/13 08:05:31;;;;;;;0.50;0.30;;;-3.80;1.00;;;;;;6072164;23;20530;-78
2022/12/13 08:08:07;;;;;;;5.77;5.23;;;-3.80;1.00;;;;;;6078274;23;20402;-80
2022/12/13 08:10:36;;;;;;;2.77;1.37;;;-3.90;1.00;;;;;;6074173;23;20919;-81
2022/12/13 08:13:04;;;;;;;1.47;1.03;;;-3.80;1.00;;;;;;6071835;23;20412;-80
2022/12/13 08:15:33;;;;;;;5.13;3.00;;;-3.80;1.00;;;;;;6071713;23;20551;-80
2022/12/13 08:18:02;;;;;;;6.57;1.70;;;-3.70;1.00;;;;;;6079094;23;20404;-80
2022/12/13 08:20:30;;;;;;;0.60;0.57;;;-3.80;1.00;;;;;;6079763;23;20411;-79
2022/12/13 08:22:59;;;;;;;0.53;0.10;;;-3.70;1.00;;;;;;6088041;23;20548;-80
2022/12/13 08:25:30;;;;;;;2.40;2.30;;;-3.70;1.00;;;;;;6087299;23;20443;-76
2022/12/13 08:28:01;;;;;;;0.80;0.60;;;-3.60;1.00;;;;;;6086962;23;20408;-80
2022/12/13 08:30:31;;;;;;;2.00;1.33;;;-3.60;1.00;;;;;;6087843;23;20392;-80
2022/12/13 08:33:00;;;;;;;2.70;1.13;;;-3.60;1.00;;;;;;6089996;23;20498;-79
2022/12/13 08:35:32;;;;;;;0.60;0.50;;;-4.60;1.00;;;;;;6090207;23;20412;-79
2022/12/13 08:38:01;;;;;;;0.50;0.10;;;-3.60;1.00;;;;;;6089791;23;20435;-80
2022/12/13 08:40:29;;;;;;;0.77;0.60;;;-3.50;1.00;;;;;;6081713;23;20403;-80
2022/12/13 08:42:57;;;;;;;0.90;0.83;;;-3.50;1.00;;;;;;6082909;23;20504;-80
2022/12/13 08:45:25;;;;;;;0.50;0.23;;;-3.50;1.00;;;;;;6081087;23;20427;-80
2022/12/13 08:47:53;;;;;;;1.00;0.83;;;-3.50;1.00;;;;;;6077139;23;20412;-80
2022/12/13 08:50:22;;;;;;;3.47;0.30;;;-3.40;1.00;;;;;;6071657;23;20408;-79
2022/12/13 08:52:52;;;;;;;19.40;4.27;;;-3.30;1.00;;;;;;6076870;23;20440;-80
2022/12/13 08:55:20;;;;;;;8.27;1.43;;;-3.40;1.00;;;;;;6083173;23;20428;-81
2022/12/13 08:57:59;;;;;;;0.50;0.10;;;-3.40;1.00;;;;;;6083359;23;20388;-77
2022/12/13 09:00:28;;;;;;;0.50;0.10;;;-3.40;1.00;;;;;;6083478;23;20826;-79
2022/12/13 09:03:04;;;;;;;2.27;2.17;;;-3.40;1.00;;;;;;6077854;23;20649;-77
2022/12/13 09:05:38;;;;;;;1.73;1.63;;;-3.20;1.00;;;;;;6074554;23;20478;-77
2022/12/13 09:08:06;;;;;;;0.70;0.50;;;-3.20;1.00;;;;;;6075673;23;20412;-78
2022/12/13 09:10:59;;;;;;;2.10;0.97;;;-3.20;1.00;;;;;;6077078;23;20391;-79
2022/12/13 09:13:28;;;;;;;1.90;1.27;;;-3.10;1.00;;;;;;6071702;23;20447;-79
2022/12/13 09:15:59;;;;;;;1.60;1.07;;;-3.00;1.00;;;;;;6080301;23;20518;-77
2022/12/13 09:18:28;;;;;;;0.50;0.20;;;-3.00;1.00;;;;;;6082473;23;20868;-78
2022/12/13 09:21:08;;;;;;;0.50;0.20;;;-2.90;1.00;;;;;;6076735;23;20749;-78
2022/12/13 09:23:40;;;;;;;1.63;1.53;;;-2.80;1.00;;;;;;6074862;23;20407;-79
2022/12/13 09:26:15;;;;;;;0.50;0.20;;;-2.80;1.00;;;;;;6072611;23;21010;-76
2022/12/13 09:28:43;;;;;;;0.90;0.50;;;-2.70;1.00;;;;;;6075698;23;20431;-77
2022/12/13 09:31:13;;;;;;;0.50;0.10;;;-2.80;1.00;;;;;;6076540;23;20926;-77
2022/12/13 09:33:41;;;;;;;0.50;0.20;;;-2.70;1.00;;;;;;6074224;23;20439;-78
2022/12/13 09:36:13;;;;;;;0.50;0.10;;;-2.70;1.00;;;;;;6071600;23;20427;-77
2022/12/13 09:38:42;;;;;;;0.60;0.20;;;-1.70;1.00;;;;;;6072069;23;20415;-76
2022/12/13 09:41:18;;;;;;;0.50;0.10;;;-2.50;1.00;;;;;;6075803;23;20449;-79
2022/12/13 09:43:51;;;;;;;0.50;0.10;;;-2.50;1.00;;;;;;6074469;23;20411;-79
2022/12/13 09:46:27;;;;;;;0.50;0.20;;;-2.40;1.00;;;;;;6071983;23;20423;-76
2022/12/13 09:49:15;;;;;;;0.50;0.10;;;-2.20;1.00;;;;;;6071816;23;20447;-78
2022/12/13 09:51:54;;;;;;;2.87;2.63;;;-2.20;1.00;;;;;;6072828;23;20431;-78
2022/12/13 09:54:39;;;;;;;0.80;0.80;;;-2.10;1.00;;;;;;6072462;23;20439;-78
2022/12/13 09:57:19;;;;;;;0.50;0.20;;;-2.10;1.00;;;;;;6071939;23;20399;-77
2022/12/13 10:00:01;;;;;;;0.50;0.20;;;-2.10;1.00;;;;;;6073948;23;20403;-79
2022/12/13 10:02:32;;;;;;;0.50;0.10;;;-2.00;1.00;;;;;;6075492;23;20419;-78
2022/12/13 10:05:15;;;;;;;0.50;0.10;;;-1.90;1.00;;;;;;6072847;23;20443;-77
2022/12/13 10:07:57;;;;;;;0.50;0.10;;;-1.90;1.00;;;;;;6068093;23;20514;-77
2022/12/13 10:10:29;;;;;;;0.50;0.30;;;;;;;;;;6070002;23;20435;-78
2022/12/13 10:13:10;;;;;;;0.50;0.10;;;-1.80;1.00;;;;;;6070536;23;20959;-77
2022/12/13 10:15:42;;;;;;;8.40;2.00;;;-1.70;1.00;;;;;;6072534;23;20470;-76
2022/12/13 10:18:14;;;;;;;3.17;2.90;;;-1.60;1.00;;;;;;6085946;23;20384;-75
2022/12/13 10:20:43;;;;;;;0.87;0.87;;;-1.50;1.00;;;;;;6070729;23;20415;-77
2022/12/13 10:23:13;;;;;;;0.50;0.10;;;-1.50;1.00;;;;;;6072562;23;20403;-76
2022/12/13 10:26:01;;;;;;;0.50;0.10;;;-1.50;1.00;;;;;;6071389;23;20462;-78
2022/12/13 10:28:33;;;;;;;0.50;0.10;;;-1.40;1.00;;;;;;6070901;23;20893;-77
2022/12/13 10:31:01;;;;;;;0.50;0.20;;;-1.40;1.00;;;;;;6071154;23;20404;-78
2022/12/13 10:33:31;;;;;;;0.50;0.20;;;-1.40;1.00;;;;;;6070678;23;20448;-77
2022/12/13 10:36:04;;;;;;;0.50;0.20;;;-1.30;1.00;;;;;;6063292;23;20428;-76
2022/12/13 10:38:38;;;;;;;0.50;0.10;;;-1.20;1.00;;;;;;6076227;23;20507;-77
2022/12/13 10:41:27;;;;;;;0.50;0.10;;;-1.20;1.00;;;;;;6072143;23;20932;-77
2022/12/13 10:44:21;;;;;;;1.77;0.97;;;-1.20;1.00;;;;;;6069840;23;20451;-77
2022/12/13 10:46:53;;;;;;;0.50;0.10;;;-1.20;1.00;;;;;;6071121;23;20745;-78
2022/12/13 10:49:23;;;;;;;0.50;0.10;;;-1.10;1.00;;;;;;6071902;23;20393;-77
2022/12/13 10:51:53;;;;;;;0.50;0.10;;;-1.10;1.00;;;;;;6083880;23;20483;-77
2022/12/13 10:54:27;;;;;;;0.50;0.10;;;-1.00;1.00;;;;;;6082264;23;20454;-77
2022/12/13 10:57:05;;;;;;;0.50;0.20;;;-0.90;1.00;;;;;;6071149;23;20430;-77
2022/12/13 10:59:35;;;;;;;0.50;0.13;;;-0.80;1.00;;;;;;6070612;23;20509;-78
2022/12/13 11:02:34;;;;;;;1.00;0.63;;;-0.70;1.00;;;;;;6079275;23;20400;-76
2022/12/13 11:05:23;;;;;;;0.50;0.20;;;-0.60;1.00;;;;;;6072661;23;20419;-77
2022/12/13 11:07:51;;;;;;;1.07;0.93;;;-0.60;1.00;;;;;;6073550;23;20465;-77
2022/12/13 11:10:25;;;;;;;0.50;0.20;;;-0.60;1.00;;;;;;6077129;23;20412;-78
2022/12/13 11:13:01;;;;;;;0.50;0.10;;;-0.50;1.00;;;;;;6070748;23;21007;-78
2022/12/13 11:15:33;;;;;;;0.80;0.70;;;-0.50;1.00;;;;;;6068654;23;20450;-77
2022/12/13 11:18:04;;;;;;;1.33;0.63;;;-0.40;1.00;;;;;;6079621;23;20407;-78
2022/12/13 11:20:34;;;;;;;1.10;0.67;;;-0.40;1.00;;;;;;6082286;23;20400;-78
2022/12/13 11:23:05;;;;;;;0.50;0.10;;;-0.40;1.00;;;;;;6079381;23;20403;-77
2022/12/13 11:25:40;;;;;;;0.50;0.10;;;-0.40;1.00;;;;;;6070730;23;20439;-77
2022/12/13 11:28:19;;;;;;;4.40;2.27;;;-0.40;1.00;;;;;;6074325;23;20479;-79
2022/12/13 11:31:05;;;;;;;1.70;0.30;;;-0.40;1.00;;;;;;6072074;23;20395;-76
2022/12/13 11:33:39;;;;;;;3.80;0.70;;;-0.30;1.00;;;;;;6071156;23;20438;-78
2022/12/13 11:36:26;;;;;;;0.50;0.40;;;-0.30;1.00;;;;;;6071811;23;21128;-77
2022/12/13 11:39:06;;;;;;;0.50;0.10;;;-0.20;1.00;;;;;;6071133;23;20420;-78
2022/12/13 11:41:40;;;;;;;0.50;0.10;;;-0.10;1.00;;;;;;6073096;23;20460;-78
2022/12/13 11:44:13;;;;;;;0.80;0.77;;;0.00;1.00;;;;;;6076273;23;20387;-77
2022/12/13 11:46:44;;;;;;;4.30;2.57;;;0.00;1.00;;;;;;6078951;23;20424;-78
2022/12/13 11:49:16;;;;;;;0.50;0.10;;;0.00;1.00;;;;;;6074537;23;20416;-76
2022/12/13 11:51:48;;;;;;;0.50;0.10;;;0.10;1.00;;;;;;6073651;23;20418;-78
2022/12/13 11:54:24;;;;;;;0.50;0.10;;;0.10;1.00;;;;;;6072620;23;20427;-76
2022/12/13 11:56:57;;;;;;;0.50;0.10;;;0.10;1.00;;;;;;6075320;23;20415;-77
2022/12/13 11:59:34;;;;;;;1.67;1.47;;;0.20;1.00;;;;;;6071739;23;20474;-77
2022/12/13 12:02:14;;;;;;;0.50;0.10;;;0.30;1.00;;;;;;6074899;23;20431;-76
2022/12/13 12:04:48;;;;;;;0.50;0.10;;;0.40;1.00;;;;;;6078198;23;20434;-77
2022/12/13 12:07:23;;;;;;;0.50;0.10;;;0.30;1.00;;;;;;6069009;23;20466;-75
2022/12/13 12:10:12;;;;;;;0.60;0.33;;;0.40;1.00;;;;;;6070477;23;20380;-78
2022/12/13 12:12:45;;;;;;;0.50;0.10;;;0.30;1.00;;;;;;6068013;23;20437;-76
2022/12/13 12:15:19;;;;;;;1.83;1.33;;;0.40;1.00;;;;;;6070287;23;20440;-77
2022/12/13 12:17:54;;;;;;;0.60;0.43;;;0.40;1.00;;;;;;6067314;23;20416;-76
2022/12/13 12:20:30;;;;;;;2.50;1.40;;;0.40;1.00;;;;;;6066736;23;20412;-77
2022/12/13 12:23:07;;;;;;;0.50;0.10;;;0.40;1.00;;;;;;6066817;23;20400;-77
2022/12/13 12:25:43;;;;;;;2.97;2.30;;;0.30;1.00;;;;;;6066874;23;20484;-76
2022/12/13 12:28:25;;;;;;;0.50;0.10;;;0.40;1.00;;;;;;6067733;23;20502;-80
2022/12/13 12:31:00;;;;;;;0.50;0.10;;;0.30;1.00;;;;;;6068214;23;20387;-78
2022/12/13 12:33:41;;;;;;;1.73;1.63;;;0.30;1.00;;;;;;6067673;23;20501;-75
2022/12/13 12:36:35;;;;;;;0.50;0.40;;;0.30;1.00;;;;;;6067993;23;20435;-76
2022/12/13 12:39:26;;;;;;;0.50;0.10;;;0.40;1.00;;;;;;6067532;23;20479;-76
2022/12/13 12:42:15;;;;;;;0.50;0.20;;;0.30;1.00;;;;;;6066296;23;20384;-77
2022/12/13 12:45:02;;;;;;;0.50;0.10;;;0.40;1.00;;;;;;6065228;23;20491;-78
2022/12/13 12:47:41;;;;;;;0.50;0.10;;;0.30;1.00;;;;;;6065157;23;20411;-77
2022/12/13 12:50:35;;;;;;;0.50;0.10;;;0.30;1.00;;;;;;6065196;23;20924;-80
2022/12/13 12:53:18;;;;;;;1.80;1.70;;;0.30;1.00;;;;;;6065801;23;20729;-78
2022/12/13 12:55:55;;;;;;;0.50;0.20;;;0.30;1.00;;;;;;6066873;23;20443;-80
2022/12/13 12:58:30;;;;;;;1.00;0.47;;;0.30;1.00;;;;;;6065181;23;20955;-77
2022/12/13 13:01:13;;;;;;;0.50;0.40;;;0.20;1.00;;;;;;6067775;23;20474;-76
2022/12/13 13:03:43;;;;;;;0.50;0.10;;;0.20;1.00;;;;;;6067382;23;20399;-79
2022/12/13 13:06:15;;;;;;;1.13;1.03;;;0.30;1.00;;;;;;6068402;23;20434;-78
2022/12/13 13:08:47;;;;;;;2.00;1.90;;;0.30;1.00;;;;;;6068077;23;20384;-79
2022/12/13 13:11:23;;;;;;;0.50;0.20;;;0.40;1.00;;;;;;6067482;23;20388;-78
2022/12/13 13:14:05;;;;;;;0.50;0.10;;;0.40;1.00;;;;;;6067455;23;20459;-80
2022/12/13 13:16:40;;;;;;;0.50;0.10;;;0.50;1.00;;;;;;6069187;23;20455;-78
2022/12/13 13:19:42;;;;;;;0.50;0.20;;;0.50;1.00;;;;;;6068450;23;20428;-76
2022/12/13 13:22:32;;;;;;;1.60;1.50;;;0.60;1.00;;;;;;6068656;23;20399;-79
2022/12/13 13:25:29;;;;;;;0.97;0.57;;;0.60;1.00;;;;;;6068975;23;20459;-78
2022/12/13 13:28:05;;;;;;;1.87;0.63;;;0.60;1.00;;;;;;6069770;23;20451;-79
2022/12/13 13:30:34;;;;;;;0.50;0.20;;;0.60;1.00;;;;;;6067894;23;20904;-78
2022/12/13 13:33:04;;;;;;;0.50;0.10;;;0.50;1.00;;;;;;6071900;23;20463;-78
2022/12/13 13:35:52;;;;;;;0.50;0.20;;;0.40;1.00;;;;;;6069481;23;20539;-78
2022/12/13 13:38:43;;;;;;;0.50;0.10;;;0.40;1.00;;;;;;6070995;23;20434;-79
2022/12/13 13:41:54;;;;;;;0.50;0.10;;;0.40;1.00;;;;;;6082490;23;20410;-77
2022/12/13 13:45:17;;;;;;;4.67;4.37;;;0.40;1.00;;;;;;6051854;23;20912;-79
2022/12/13 13:48:02;;;;;;;0.50;0.10;;;0.40;1.00;;;;;;6077223;23;20467;-79
2022/12/13 13:51:08;;;;;;;0.50;0.10;;;0.40;1.00;;;;;;6071149;23;20412;-77
2022/12/13 13:54:13;;;;;;;0.50;0.10;;;0.40;1.00;;;;;;6076479;23;20412;-79
2022/12/13 13:57:14;;;;;;;1.30;1.20;;;0.40;1.00;;;;;;6062058;23;20431;-76
2022/12/13 14:00:11;;;;;;;0.50;0.10;;;0.50;1.00;;;;;;6083403;23;20403;-75
2022/12/13 14:03:25;;;;;;;0.50;0.10;;;0.40;1.00;;;;;;6079673;23;20521;-79
2022/12/13 14:06:35;;;;;;;0.50;0.20;;;0.40;1.00;;;;;;6070240;23;20466;-76
2022/12/13 14:09:37;;;;;;;0.50;0.10;;;0.40;1.00;;;;;;6069234;23;20734;-76
2022/12/13 14:12:46;;;;;;;0.50;0.10;;;0.30;1.00;;;;;;6051016;23;20422;-76
2022/12/13 14:15:56;;;;;;;0.50;0.10;;;0.30;1.00;;;;;;6073404;23;20490;-77
2022/12/13 14:18:59;;;;;;;0.50;0.10;;;0.30;1.00;;;;;;6031844;23;20418;-76
2022/12/13 14:21:34;;;;;;;3.90;2.00;;;0.30;1.00;;;;;;6084136;23;20404;-81
2022/12/13 14:24:19;;;;;;;0.50;0.10;;;0.30;1.00;;;;;;6070025;23;20384;-78
2022/12/13 14:27:01;;;;;;;2.20;2.00;;;0.20;1.00;;;;;;6075176;23;20511;-77
2022/12/13 14:29:32;;;;;;;6.03;2.97;;;0.10;1.00;;;;;;6076680;23;20403;-78
2022/12/13 14:32:00;;;;;;;1.23;0.73;;;0.10;1.00;;;;;;6072061;23;20411;-77
2022/12/13 14:34:31;;;;;;;1.70;1.60;;;0.10;1.00;;;;;;6073578;23;20455;-78
2022/12/13 14:37:01;;;;;;;0.50;0.10;;;0.10;1.00;;;;;;6072138;23;20408;-77
2022/12/13 14:39:33;;;;;;;0.50;0.20;;;0.10;1.00;;;;;;6072302;23;20414;-77
2022/12/13 14:42:03;;;;;;;0.50;0.10;;;0.90;1.00;;;;;;6072534;23;20392;-77
2022/12/13 14:44:34;;;;;;;0.50;0.10;;;0.00;1.00;;;;;;6069476;23;20490;-77
2022/12/13 14:47:05;;;;;;;0.50;0.10;;;0.00;1.00;;;;;;6074772;23;20400;-77
2022/12/13 14:49:34;;;;;;;0.50;0.10;;;;;;;;;;6074338;23;20418;-78
2022/12/13 14:52:06;;;;;;;0.50;0.10;;;-0.10;1.00;;;;;;6074768;23;20395;-78
2022/12/13 14:54:44;;;;;;;0.50;0.10;;;-0.10;1.00;;;;;;6075841;23;20443;-77
2022/12/13 14:57:17;;;;;;;0.70;0.53;;;-0.20;1.00;;;;;;6075763;23;20418;-77
2022/12/13 14:59:46;;;;;;;0.80;0.80;;;-0.20;1.00;;;;;;6076719;23;20492;-77
2022/12/13 15:02:20;;;;;;;0.63;0.50;;;-0.20;1.00;;;;;;6072265;23;20698;-78
2022/12/13 15:04:58;;;;;;;0.50;0.10;;;-0.30;1.00;;;;;;6072893;23;20451;-77
2022/12/13 15:07:30;;;;;;;0.70;0.50;;;-0.30;1.00;;;;;;6074472;23;20439;-77
2022/12/13 15:10:01;;;;;;;0.63;0.63;;;-0.30;1.00;;;;;;6074128;23;20482;-75
2022/12/13 15:12:31;;;;;;;0.50;0.10;;;-0.30;1.00;;;;;;6073297;23;20411;-80
2022/12/13 15:15:01;;;;;;;0.50;0.10;;;-0.40;1.00;;;;;;6073142;23;20475;-77
2022/12/13 15:17:32;;;;;;;0.50;0.10;;;-0.40;1.00;;;;;;6070599;23;20408;-77
2022/12/13 15:20:01;;;;;;;0.60;0.33;;;-0.40;1.00;;;;;;6071057;23;20472;-78
2022/12/13 15:22:29;;;;;;;2.23;2.13;;;-0.40;1.00;;;;;;6068756;23;20518;-77
2022/12/13 15:24:58;;;;;;;0.60;0.53;;;-0.40;1.00;;;;;;6073399;23;20428;-77
2022/12/13 15:27:27;;;;;;;1.60;1.50;;;-0.40;1.00;;;;;;6071413;23;20475;-77
2022/12/13 15:29:55;;;;;;;0.50;0.10;;;-0.40;1.00;;;;;;6070961;23;20439;-76
2022/12/13 15:32:23;;;;;;;0.50;0.10;;;-0.50;1.00;;;;;;6071926;23;20434;-77
2022/12/13 15:34:51;;;;;;;0.50;0.30;;;-0.50;1.00;;;;;;6069710;23;20462;-75
2022/12/13 15:37:28;;;;;;;0.50;0.30;;;-0.50;1.00;;;;;;6067741;23;20457;-77
2022/12/13 15:39:59;;;;;;;0.50;0.30;;;;;;;;;;6072559;23;20475;-81
2022/12/13 15:42:36;;;;;;;0.50;0.20;;;-0.60;1.00;;;;;;6093561;23;20376;-81
2022/12/13 15:45:17;;;;;;;4.43;2.83;;;-0.60;1.00;;;;;;6094826;23;20400;-81
2022/12/13 15:47:46;;;;;;;0.50;0.30;;;-0.60;1.00;;;;;;6094808;23;20429;-81
2022/12/13 15:50:30;;;;;;;0.63;0.63;;;-0.70;1.00;;;;;;6094393;23;20446;-81
2022/12/13 15:53:01;;;;;;;2.87;2.67;;;-0.60;1.00;;;;;;6091535;23;20415;-81
2022/12/13 15:55:34;;;;;;;2.80;0.60;;;-0.70;1.00;;;;;;6094742;23;20411;-84
2022/12/13 15:58:04;;;;;;;0.50;0.20;;;;;;;;;;6094626;23;20406;-81
2022/12/13 16:00:34;;;;;;;0.50;0.10;;;-0.70;1.00;;;;;;6093623;23;20470;-81
2022/12/13 16:03:07;;;;;;;4.33;4.07;;;-0.70;1.00;;;;;;6089996;23;20423;-82
2022/12/13 16:05:47;;;;;;;0.50;0.10;;;-0.70;1.00;;;;;;6091317;23;20384;-81
2022/12/13 16:08:26;;;;;;;0.50;0.30;;;-1.10;1.00;;;;;;6086127;23;20471;-82
2022/12/13 16:10:54;;;;;;;0.50;0.10;;;;;;;;;;6087847;23;20412;-82
2022/12/13 16:13:26;;;;;;;3.03;2.20;;;-0.60;1.00;;;;;;6085896;23;20416;-81
2022/12/13 16:15:56;;;;;;;0.50;0.10;;;-0.60;1.00;;;;;;6085331;23;20499;-80
2022/12/13 16:18:44;;;;;;;0.50;0.10;;;-0.70;1.00;;;;;;6086906;23;20409;-80
2022/12/13 16:21:13;;;;;;;0.80;0.63;;;-0.70;1.00;;;;;;6088724;23;20491;-81
2022/12/13 16:23:41;;;;;;;1.50;1.40;;;;;;;;;;6088948;23;20407;-80
2022/12/13 16:26:22;;;;;;;0.50;0.10;;;-0.70;1.00;;;;;;6093239;23;20399;-82
2022/12/13 16:28:52;;;;;;;0.50;0.10;;;;;;;;;;6093027;23;20406;-81
2022/12/13 16:31:21;;;;;;;2.43;1.60;;;-0.80;1.00;;;;;;6093143;23;20483;-80
2022/12/13 16:33:49;;;;;;;1.70;0.67;;;;;;;;;;6091515;23;20403;-82
2022/12/13 16:36:17;;;;;;;3.60;2.40;;;-0.90;1.00;;;;;;6093090;23;20470;-78
2022/12/13 16:38:46;;;;;;;2.03;1.93;;;;;;;;;;6093549;23;20471;-80
2022/12/13 16:41:15;;;;;;;3.83;2.03;;;;;;;;;;6093863;23;20435;-78
2022/12/13 16:43:51;;;;;;;0.60;0.10;;;-0.90;1.00;;;;;;6093633;23;20426;-79
2022/12/13 16:46:20;;;;;;;0.60;0.50;;;;;;;;;;6093863;23;20420;-79
2022/12/13 16:49:22;;;;;;;0.90;0.63;;;-0.90;1.00;;;;;;6093279;23;20408;-82
2022/12/13 16:51:52;;;;;;;0.60;0.30;;;-0.90;1.00;;;;;;6090813;23;20416;-80
2022/12/13 16:54:22;;;;;;;1.70;1.50;;;-0.90;1.00;;;;;;6092710;23;20428;-80
2022/12/13 16:56:51;;;;;;;0.50;0.30;;;-0.90;1.00;;;;;;6090474;23;20573;-80
2022/12/13 16:59:22;;;;;;;2.73;1.70;;;-0.80;1.00;;;;;;6093311;23;20387;-81
2022/12/13 17:01:52;;;;;;;0.50;0.10;;;-0.80;1.00;;;;;;6092644;23;20404;-79
2022/12/13 17:04:21;;;;;;;0.60;0.37;;;-1.80;1.00;;;;;;6093413;23;20734;-81
2022/12/13 17:06:50;;;;;;;0.87;0.60;;;-0.80;1.00;;;;;;6094524;23;20438;-80
2022/12/13 17:09:22;;;;;;;0.50;0.10;;;-0.90;1.00;;;;;;6094197;23;20442;-81
2022/12/13 17:11:59;;;;;;;0.70;0.30;;;;;;;;;;6092714;23;20418;-82
2022/12/13 17:14:27;;;;;;;0.50;0.20;;;-0.80;1.00;;;;;;6094337;23;20455;-81
2022/12/13 17:16:56;;;;;;;2.93;2.73;;;-0.90;1.00;;;;;;6093974;23;20447;-82
2022/12/13 17:19:24;;;;;;;0.50;0.30;;;-0.90;1.00;;;;;;6093072;23;20423;-79
2022/12/13 17:21:53;;;;;;;0.50;0.10;;;;;;;;;;6093718;23;20478;-80
2022/12/13 17:24:21;;;;;;;0.60;0.47;;;-0.90;1.00;;;;;;6092135;23;20435;-78
2022/12/13 17:26:49;;;;;;;2.60;1.70;;;-0.90;1.00;;;;;;6093878;23;20415;-84
2022/12/13 17:29:22;;;;;;;0.50;0.10;;;;;;;;;;6094623;23;20404;-82
2022/12/13 17:31:51;;;;;;;2.43;0.60;;;-0.90;1.00;;;;;;6095144;23;20420;-80
2022/12/13 17:34:26;;;;;;;0.50;0.20;;;;;;;;;;6095826;23;20435;-82
2022/12/13 17:36:54;;;;;;;1.03;0.33;;;;;;;;;;6096224;23;20455;-81
2022/12/13 17:39:24;;;;;;;1.50;1.40;;;;;;;;;;6095199;23;20447;-85
2022/12/13 17:41:52;;;;;;;0.50;0.20;;;-0.80;1.00;;;;;;6096297;23;20450;-82
2022/12/13 17:44:23;;;;;;;0.50;0.10;;;-0.20;1.00;;;;;;6096069;23;20411;-79